sensor_id;sensor_type;location;lat;lon;timestamp;P1;durP1;ratioP1;P2;durP2;ratioP2
55364;SDS011;41245;45.384;20.390;2023-05-10T00:02:06;10.75;;;7.25;;
55364;SDS011;41245;45.384;20.390;2023-05-10T00:04:32;6.95;;;5.97;;
55364;SDS011;41245;45.384;20.390;2023-05-10T00:06:57;12.48;;;7.95;;
55364;SDS011;41245;45.384;20.390;2023-05-10T00:09:23;8.13;;;6.75;;
55364;SDS011;41245;45.384;20.390;2023-05-10T00:11:49;13.85;;;7.00;;
55364;SDS011;41245;45.384;20.390;2023-05-10T00:14:15;7.97;;;6.15;;
55364;SDS011;41245;45.384;20.390;2023-05-10T00:16:41;8.95;;;6.75;;
55364;SDS011;41245;45.384;20.390;2023-05-10T00:19:06;9.45;;;5.90;;
55364;SDS011;41245;45.384;20.390;2023-05-10T00:21:32;11.88;;;7.68;;
55364;SDS011;41245;45.384;20.390;2023-05-10T00:23:58;11.45;;;7.03;;
55364;SDS011;41245;45.384;20.390;2023-05-10T00:26:24;18.08;;;7.20;;
55364;SDS011;41245;45.384;20.390;2023-05-10T00:28:50;17.08;;;7.00;;
55364;SDS011;41245;45.384;20.390;2023-05-10T00:31:16;9.98;;;7.10;;
55364;SDS011;41245;45.384;20.390;2023-05-10T00:33:42;9.73;;;6.63;;
55364;SDS011;41245;45.384;20.390;2023-05-10T00:36:08;10.60;;;7.45;;
55364;SDS011;41245;45.384;20.390;2023-05-10T00:38:33;9.30;;;6.85;;
55364;SDS011;41245;45.384;20.390;2023-05-10T00:40:59;9.20;;;7.35;;
55364;SDS011;41245;45.384;20.390;2023-05-10T00:43:25;9.95;;;6.25;;
55364;SDS011;41245;45.384;20.390;2023-05-10T00:45:51;12.55;;;7.13;;
55364;SDS011;41245;45.384;20.390;2023-05-10T00:48:17;11.52;;;6.47;;
55364;SDS011;41245;45.384;20.390;2023-05-10T00:50:43;12.13;;;7.40;;
55364;SDS011;41245;45.384;20.390;2023-05-10T00:53:10;12.43;;;7.15;;
55364;SDS011;41245;45.384;20.390;2023-05-10T00:55:36;9.27;;;7.28;;
55364;SDS011;41245;45.384;20.390;2023-05-10T00:58:02;9.10;;;6.45;;
55364;SDS011;41245;45.384;20.390;2023-05-10T01:00:28;8.13;;;6.78;;
55364;SDS011;41245;45.384;20.390;2023-05-10T01:02:54;13.02;;;7.00;;
55364;SDS011;41245;45.384;20.390;2023-05-10T01:05:20;13.75;;;7.95;;
55364;SDS011;41245;45.384;20.390;2023-05-10T01:07:46;13.48;;;6.88;;
55364;SDS011;41245;45.384;20.390;2023-05-10T01:10:13;8.63;;;6.82;;
55364;SDS011;41245;45.384;20.390;2023-05-10T01:12:40;13.32;;;9.30;;
55364;SDS011;41245;45.384;20.390;2023-05-10T01:15:07;13.75;;;7.63;;
55364;SDS011;41245;45.384;20.390;2023-05-10T01:17:38;11.38;;;8.15;;
55364;SDS011;41245;45.384;20.390;2023-05-10T01:20:06;16.83;;;7.55;;
55364;SDS011;41245;45.384;20.390;2023-05-10T01:28:13;11.15;;;9.10;;
55364;SDS011;41245;45.384;20.390;2023-05-10T01:33:59;11.32;;;7.93;;
55364;SDS011;41245;45.384;20.390;2023-05-10T01:44:37;11.38;;;9.05;;
55364;SDS011;41245;45.384;20.390;2023-05-10T01:47:05;13.45;;;10.35;;
55364;SDS011;41245;45.384;20.390;2023-05-10T01:49:40;13.95;;;9.50;;
55364;SDS011;41245;45.384;20.390;2023-05-10T01:52:10;14.98;;;10.85;;
55364;SDS011;41245;45.384;20.390;2023-05-10T01:54:40;14.90;;;10.15;;
55364;SDS011;41245;45.384;20.390;2023-05-10T01:57:09;14.38;;;10.05;;
55364;SDS011;41245;45.384;20.390;2023-05-10T01:59:39;10.52;;;8.73;;
55364;SDS011;41245;45.384;20.390;2023-05-10T02:02:08;17.25;;;9.70;;
55364;SDS011;41245;45.384;20.390;2023-05-10T02:04:37;17.77;;;10.10;;
55364;SDS011;41245;45.384;20.390;2023-05-10T02:07:04;13.07;;;10.52;;
55364;SDS011;41245;45.384;20.390;2023-05-10T02:09:32;14.98;;;10.20;;
55364;SDS011;41245;45.384;20.390;2023-05-10T02:11:59;12.60;;;9.68;;
55364;SDS011;41245;45.384;20.390;2023-05-10T02:14:27;14.52;;;8.88;;
55364;SDS011;41245;45.384;20.390;2023-05-10T02:16:57;14.13;;;9.07;;
55364;SDS011;41245;45.384;20.390;2023-05-10T02:19:24;15.13;;;9.73;;
55364;SDS011;41245;45.384;20.390;2023-05-10T02:21:52;17.48;;;9.48;;
55364;SDS011;41245;45.384;20.390;2023-05-10T02:24:20;11.63;;;9.18;;
55364;SDS011;41245;45.384;20.390;2023-05-10T02:26:47;10.88;;;8.38;;
55364;SDS011;41245;45.384;20.390;2023-05-10T02:29:16;17.90;;;9.35;;
55364;SDS011;41245;45.384;20.390;2023-05-10T02:31:43;12.73;;;9.05;;
55364;SDS011;41245;45.384;20.390;2023-05-10T02:34:10;13.77;;;10.25;;
55364;SDS011;41245;45.384;20.390;2023-05-10T02:36:37;13.07;;;10.48;;
55364;SDS011;41245;45.384;20.390;2023-05-10T02:39:04;12.55;;;9.38;;
55364;SDS011;41245;45.384;20.390;2023-05-10T02:41:34;11.45;;;8.82;;
55364;SDS011;41245;45.384;20.390;2023-05-10T02:44:01;11.80;;;9.00;;
55364;SDS011;41245;45.384;20.390;2023-05-10T02:46:28;13.77;;;9.73;;
55364;SDS011;41245;45.384;20.390;2023-05-10T02:48:55;12.38;;;10.15;;
55364;SDS011;41245;45.384;20.390;2023-05-10T02:51:20;12.15;;;10.05;;
55364;SDS011;41245;45.384;20.390;2023-05-10T02:53:52;9.98;;;8.65;;
55364;SDS011;41245;45.384;20.390;2023-05-10T02:56:28;10.75;;;9.20;;
55364;SDS011;41245;45.384;20.390;2023-05-10T02:58:58;11.45;;;9.40;;
55364;SDS011;41245;45.384;20.390;2023-05-10T03:01:23;10.20;;;8.07;;
55364;SDS011;41245;45.384;20.390;2023-05-10T03:03:49;11.85;;;8.68;;
55364;SDS011;41245;45.384;20.390;2023-05-10T03:06:15;11.05;;;8.32;;
55364;SDS011;41245;45.384;20.390;2023-05-10T03:08:41;12.80;;;9.23;;
55364;SDS011;41245;45.384;20.390;2023-05-10T03:13:56;10.63;;;8.23;;
55364;SDS011;41245;45.384;20.390;2023-05-10T03:16:29;13.18;;;8.85;;
55364;SDS011;41245;45.384;20.390;2023-05-10T03:22:21;9.57;;;8.57;;
55364;SDS011;41245;45.384;20.390;2023-05-10T03:24:59;9.98;;;8.93;;
55364;SDS011;41245;45.384;20.390;2023-05-10T03:27:27;10.43;;;8.95;;
55364;SDS011;41245;45.384;20.390;2023-05-10T03:29:54;10.38;;;8.07;;
55364;SDS011;41245;45.384;20.390;2023-05-10T03:32:21;14.90;;;8.00;;
55364;SDS011;41245;45.384;20.390;2023-05-10T03:34:48;8.20;;;7.32;;
55364;SDS011;41245;45.384;20.390;2023-05-10T03:37:13;10.98;;;7.50;;
55364;SDS011;41245;45.384;20.390;2023-05-10T03:39:39;14.73;;;7.57;;
55364;SDS011;41245;45.384;20.390;2023-05-10T03:42:05;9.35;;;6.63;;
55364;SDS011;41245;45.384;20.390;2023-05-10T03:44:31;9.18;;;7.18;;
55364;SDS011;41245;45.384;20.390;2023-05-10T03:46:58;8.15;;;6.68;;
55364;SDS011;41245;45.384;20.390;2023-05-10T03:49:24;8.60;;;7.13;;
55364;SDS011;41245;45.384;20.390;2023-05-10T03:51:50;9.23;;;8.23;;
55364;SDS011;41245;45.384;20.390;2023-05-10T03:54:15;9.90;;;7.55;;
55364;SDS011;41245;45.384;20.390;2023-05-10T03:56:41;12.82;;;7.35;;
55364;SDS011;41245;45.384;20.390;2023-05-10T03:59:07;9.50;;;6.18;;
55364;SDS011;41245;45.384;20.390;2023-05-10T04:01:34;10.38;;;6.57;;
55364;SDS011;41245;45.384;20.390;2023-05-10T04:04:00;7.18;;;6.47;;
55364;SDS011;41245;45.384;20.390;2023-05-10T04:06:25;7.68;;;6.20;;
55364;SDS011;41245;45.384;20.390;2023-05-10T04:08:51;7.90;;;6.57;;
55364;SDS011;41245;45.384;20.390;2023-05-10T04:11:17;9.93;;;7.25;;
55364;SDS011;41245;45.384;20.390;2023-05-10T04:13:42;13.38;;;6.55;;
55364;SDS011;41245;45.384;20.390;2023-05-10T04:16:08;14.23;;;6.85;;
55364;SDS011;41245;45.384;20.390;2023-05-10T04:18:34;7.68;;;5.85;;
55364;SDS011;41245;45.384;20.390;2023-05-10T04:21:00;7.82;;;6.10;;
55364;SDS011;41245;45.384;20.390;2023-05-10T04:23:28;8.07;;;6.05;;
55364;SDS011;41245;45.384;20.390;2023-05-10T04:26:01;7.20;;;5.85;;
55364;SDS011;41245;45.384;20.390;2023-05-10T04:28:26;7.60;;;5.95;;
55364;SDS011;41245;45.384;20.390;2023-05-10T04:30:52;13.38;;;5.50;;
55364;SDS011;41245;45.384;20.390;2023-05-10T04:33:18;8.10;;;6.53;;
55364;SDS011;41245;45.384;20.390;2023-05-10T04:35:43;14.15;;;6.53;;
55364;SDS011;41245;45.384;20.390;2023-05-10T04:38:10;10.73;;;5.95;;
55364;SDS011;41245;45.384;20.390;2023-05-10T04:40:35;10.25;;;6.25;;
55364;SDS011;41245;45.384;20.390;2023-05-10T04:43:01;14.27;;;6.25;;
55364;SDS011;41245;45.384;20.390;2023-05-10T04:45:27;10.93;;;5.72;;
55364;SDS011;41245;45.384;20.390;2023-05-10T04:47:52;9.27;;;5.53;;
55364;SDS011;41245;45.384;20.390;2023-05-10T04:50:18;7.47;;;4.72;;
55364;SDS011;41245;45.384;20.390;2023-05-10T04:52:44;5.97;;;4.53;;
55364;SDS011;41245;45.384;20.390;2023-05-10T04:55:10;7.60;;;4.38;;
55364;SDS011;41245;45.384;20.390;2023-05-10T04:57:35;8.82;;;3.95;;
55364;SDS011;41245;45.384;20.390;2023-05-10T05:00:01;10.45;;;4.60;;
55364;SDS011;41245;45.384;20.390;2023-05-10T05:02:27;6.10;;;4.60;;
55364;SDS011;41245;45.384;20.390;2023-05-10T05:04:52;9.02;;;4.07;;
55364;SDS011;41245;45.384;20.390;2023-05-10T05:07:20;16.15;;;4.20;;
55364;SDS011;41245;45.384;20.390;2023-05-10T05:09:46;6.97;;;4.43;;
55364;SDS011;41245;45.384;20.390;2023-05-10T05:12:12;8.57;;;5.40;;
55364;SDS011;41245;45.384;20.390;2023-05-10T05:14:39;9.15;;;4.50;;
55364;SDS011;41245;45.384;20.390;2023-05-10T05:17:05;5.75;;;4.13;;
55364;SDS011;41245;45.384;20.390;2023-05-10T05:19:31;8.80;;;4.32;;
55364;SDS011;41245;45.384;20.390;2023-05-10T05:21:56;8.60;;;4.68;;
55364;SDS011;41245;45.384;20.390;2023-05-10T05:24:22;7.25;;;4.47;;
55364;SDS011;41245;45.384;20.390;2023-05-10T05:26:48;6.95;;;4.28;;
55364;SDS011;41245;45.384;20.390;2023-05-10T05:29:13;7.63;;;4.80;;
55364;SDS011;41245;45.384;20.390;2023-05-10T05:31:39;7.28;;;4.53;;
55364;SDS011;41245;45.384;20.390;2023-05-10T05:34:05;11.20;;;4.45;;
55364;SDS011;41245;45.384;20.390;2023-05-10T05:36:30;8.38;;;4.60;;
55364;SDS011;41245;45.384;20.390;2023-05-10T05:38:57;7.38;;;4.10;;
55364;SDS011;41245;45.384;20.390;2023-05-10T05:41:22;10.73;;;4.03;;
55364;SDS011;41245;45.384;20.390;2023-05-10T05:43:50;6.88;;;4.18;;
55364;SDS011;41245;45.384;20.390;2023-05-10T05:46:16;5.28;;;4.15;;
55364;SDS011;41245;45.384;20.390;2023-05-10T05:48:42;9.10;;;4.18;;
55364;SDS011;41245;45.384;20.390;2023-05-10T05:51:07;6.78;;;4.03;;
55364;SDS011;41245;45.384;20.390;2023-05-10T05:53:33;9.52;;;4.47;;
55364;SDS011;41245;45.384;20.390;2023-05-10T05:55:59;14.32;;;4.43;;
55364;SDS011;41245;45.384;20.390;2023-05-10T05:58:25;8.15;;;4.35;;
55364;SDS011;41245;45.384;20.390;2023-05-10T06:00:51;4.47;;;3.83;;
55364;SDS011;41245;45.384;20.390;2023-05-10T06:03:17;5.35;;;3.90;;
55364;SDS011;41245;45.384;20.390;2023-05-10T06:05:43;7.75;;;4.07;;
55364;SDS011;41245;45.384;20.390;2023-05-10T06:08:09;5.47;;;4.03;;
55364;SDS011;41245;45.384;20.390;2023-05-10T06:10:35;11.40;;;4.38;;
55364;SDS011;41245;45.384;20.390;2023-05-10T06:13:01;9.50;;;3.75;;
55364;SDS011;41245;45.384;20.390;2023-05-10T06:15:26;12.15;;;4.35;;
55364;SDS011;41245;45.384;20.390;2023-05-10T06:17:52;13.40;;;4.55;;
55364;SDS011;41245;45.384;20.390;2023-05-10T06:20:18;5.78;;;4.38;;
55364;SDS011;41245;45.384;20.390;2023-05-10T06:22:44;8.23;;;4.00;;
55364;SDS011;41245;45.384;20.390;2023-05-10T06:25:09;9.35;;;4.38;;
55364;SDS011;41245;45.384;20.390;2023-05-10T06:27:36;5.53;;;3.78;;
55364;SDS011;41245;45.384;20.390;2023-05-10T06:30:02;4.43;;;3.67;;
55364;SDS011;41245;45.384;20.390;2023-05-10T06:32:28;6.53;;;4.10;;
55364;SDS011;41245;45.384;20.390;2023-05-10T06:34:54;5.97;;;4.05;;
55364;SDS011;41245;45.384;20.390;2023-05-10T06:37:19;7.75;;;4.18;;
55364;SDS011;41245;45.384;20.390;2023-05-10T06:39:45;7.43;;;4.65;;
55364;SDS011;41245;45.384;20.390;2023-05-10T06:42:11;5.93;;;3.15;;
55364;SDS011;41245;45.384;20.390;2023-05-10T06:44:36;8.50;;;4.05;;
55364;SDS011;41245;45.384;20.390;2023-05-10T06:47:02;5.82;;;3.40;;
55364;SDS011;41245;45.384;20.390;2023-05-10T06:49:28;10.40;;;4.20;;
55364;SDS011;41245;45.384;20.390;2023-05-10T06:51:55;7.20;;;4.15;;
55364;SDS011;41245;45.384;20.390;2023-05-10T06:54:21;12.23;;;4.57;;
55364;SDS011;41245;45.384;20.390;2023-05-10T06:56:46;8.68;;;3.60;;
55364;SDS011;41245;45.384;20.390;2023-05-10T06:59:12;5.88;;;3.50;;
55364;SDS011;41245;45.384;20.390;2023-05-10T07:01:38;9.00;;;3.88;;
55364;SDS011;41245;45.384;20.390;2023-05-10T07:04:04;5.45;;;3.10;;
55364;SDS011;41245;45.384;20.390;2023-05-10T07:06:32;15.63;;;4.50;;
55364;SDS011;41245;45.384;20.390;2023-05-10T07:08:58;9.82;;;3.50;;
55364;SDS011;41245;45.384;20.390;2023-05-10T07:11:24;20.30;;;4.82;;
55364;SDS011;41245;45.384;20.390;2023-05-10T07:13:50;5.13;;;3.40;;
55364;SDS011;41245;45.384;20.390;2023-05-10T07:16:15;14.50;;;5.32;;
55364;SDS011;41245;45.384;20.390;2023-05-10T07:18:41;9.57;;;3.33;;
55364;SDS011;41245;45.384;20.390;2023-05-10T07:21:07;16.58;;;4.18;;
55364;SDS011;41245;45.384;20.390;2023-05-10T07:23:33;15.70;;;4.15;;
55364;SDS011;41245;45.384;20.390;2023-05-10T07:25:59;7.18;;;3.95;;
55364;SDS011;41245;45.384;20.390;2023-05-10T07:28:25;7.47;;;4.40;;
55364;SDS011;41245;45.384;20.390;2023-05-10T07:30:50;6.63;;;4.20;;
55364;SDS011;41245;45.384;20.390;2023-05-10T07:33:16;10.65;;;4.55;;
55364;SDS011;41245;45.384;20.390;2023-05-10T07:35:42;8.65;;;4.30;;
55364;SDS011;41245;45.384;20.390;2023-05-10T07:38:08;6.30;;;4.13;;
55364;SDS011;41245;45.384;20.390;2023-05-10T07:40:35;17.67;;;3.83;;
55364;SDS011;41245;45.384;20.390;2023-05-10T07:43:01;9.52;;;4.10;;
55364;SDS011;41245;45.384;20.390;2023-05-10T07:45:27;7.20;;;4.13;;
55364;SDS011;41245;45.384;20.390;2023-05-10T07:47:53;12.45;;;4.15;;
55364;SDS011;41245;45.384;20.390;2023-05-10T07:50:19;8.32;;;3.72;;
55364;SDS011;41245;45.384;20.390;2023-05-10T07:52:46;8.02;;;4.25;;
55364;SDS011;41245;45.384;20.390;2023-05-10T07:55:12;8.00;;;5.10;;
55364;SDS011;41245;45.384;20.390;2023-05-10T07:57:38;8.73;;;4.38;;
55364;SDS011;41245;45.384;20.390;2023-05-10T08:00:07;8.38;;;4.03;;
55364;SDS011;41245;45.384;20.390;2023-05-10T08:02:35;5.80;;;4.22;;
55364;SDS011;41245;45.384;20.390;2023-05-10T08:05:01;10.35;;;3.95;;
55364;SDS011;41245;45.384;20.390;2023-05-10T08:07:27;7.97;;;3.95;;
55364;SDS011;41245;45.384;20.390;2023-05-10T08:09:52;10.07;;;3.35;;
55364;SDS011;41245;45.384;20.390;2023-05-10T08:12:18;11.70;;;3.78;;
55364;SDS011;41245;45.384;20.390;2023-05-10T08:14:44;6.03;;;3.15;;
55364;SDS011;41245;45.384;20.390;2023-05-10T08:17:09;5.20;;;2.97;;
55364;SDS011;41245;45.384;20.390;2023-05-10T08:19:35;6.78;;;4.28;;
55364;SDS011;41245;45.384;20.390;2023-05-10T08:22:01;16.35;;;3.58;;
55364;SDS011;41245;45.384;20.390;2023-05-10T08:24:26;11.05;;;3.00;;
55364;SDS011;41245;45.384;20.390;2023-05-10T08:26:52;6.50;;;3.97;;
55364;SDS011;41245;45.384;20.390;2023-05-10T08:29:18;15.30;;;4.13;;
55364;SDS011;41245;45.384;20.390;2023-05-10T08:31:43;8.48;;;3.85;;
55364;SDS011;41245;45.384;20.390;2023-05-10T08:34:10;8.50;;;3.22;;
55364;SDS011;41245;45.384;20.390;2023-05-10T08:36:35;4.45;;;2.97;;
55364;SDS011;41245;45.384;20.390;2023-05-10T08:39:01;5.32;;;2.90;;
55364;SDS011;41245;45.384;20.390;2023-05-10T08:41:27;7.35;;;2.72;;
55364;SDS011;41245;45.384;20.390;2023-05-10T08:43:55;9.38;;;3.05;;
55364;SDS011;41245;45.384;20.390;2023-05-10T08:46:21;8.65;;;2.97;;
55364;SDS011;41245;45.384;20.390;2023-05-10T08:48:49;8.13;;;3.10;;
55364;SDS011;41245;45.384;20.390;2023-05-10T08:51:20;10.52;;;2.60;;
55364;SDS011;41245;45.384;20.390;2023-05-10T08:53:51;6.75;;;2.92;;
55364;SDS011;41245;45.384;20.390;2023-05-10T08:56:17;10.48;;;2.60;;
55364;SDS011;41245;45.384;20.390;2023-05-10T08:58:43;5.88;;;3.50;;
55364;SDS011;41245;45.384;20.390;2023-05-10T09:01:09;7.28;;;3.13;;
55364;SDS011;41245;45.384;20.390;2023-05-10T09:03:38;10.13;;;3.00;;
55364;SDS011;41245;45.384;20.390;2023-05-10T09:06:04;3.88;;;2.38;;
55364;SDS011;41245;45.384;20.390;2023-05-10T09:08:30;13.82;;;2.55;;
55364;SDS011;41245;45.384;20.390;2023-05-10T09:10:56;11.68;;;3.40;;
55364;SDS011;41245;45.384;20.390;2023-05-10T09:13:22;7.22;;;3.15;;
55364;SDS011;41245;45.384;20.390;2023-05-10T09:15:49;4.90;;;2.60;;
55364;SDS011;41245;45.384;20.390;2023-05-10T09:18:16;5.45;;;2.45;;
55364;SDS011;41245;45.384;20.390;2023-05-10T09:20:42;9.98;;;2.25;;
55364;SDS011;41245;45.384;20.390;2023-05-10T09:23:07;7.43;;;2.55;;
55364;SDS011;41245;45.384;20.390;2023-05-10T09:25:33;3.80;;;2.20;;
55364;SDS011;41245;45.384;20.390;2023-05-10T09:27:59;5.07;;;2.72;;
55364;SDS011;41245;45.384;20.390;2023-05-10T09:30:26;3.63;;;2.22;;
55364;SDS011;41245;45.384;20.390;2023-05-10T09:32:53;7.63;;;2.55;;
55364;SDS011;41245;45.384;20.390;2023-05-10T09:35:21;8.10;;;2.65;;
55364;SDS011;41245;45.384;20.390;2023-05-10T09:37:50;4.90;;;2.72;;
55364;SDS011;41245;45.384;20.390;2023-05-10T09:42:54;6.38;;;2.03;;
55364;SDS011;41245;45.384;20.390;2023-05-10T09:45:22;12.15;;;2.95;;
55364;SDS011;41245;45.384;20.390;2023-05-10T09:47:49;6.10;;;2.58;;
55364;SDS011;41245;45.384;20.390;2023-05-10T09:50:15;7.72;;;2.60;;
55364;SDS011;41245;45.384;20.390;2023-05-10T09:55:22;8.57;;;2.42;;
55364;SDS011;41245;45.384;20.390;2023-05-10T09:57:58;13.77;;;3.05;;
55364;SDS011;41245;45.384;20.390;2023-05-10T10:00:25;2.10;;;1.98;;
55364;SDS011;41245;45.384;20.390;2023-05-10T10:02:58;7.00;;;3.03;;
55364;SDS011;41245;45.384;20.390;2023-05-10T10:05:43;4.50;;;2.55;;
55364;SDS011;41245;45.384;20.390;2023-05-10T10:08:09;9.95;;;3.55;;
55364;SDS011;41245;45.384;20.390;2023-05-10T10:10:36;6.55;;;2.20;;
55364;SDS011;41245;45.384;20.390;2023-05-10T10:13:05;5.70;;;2.67;;
55364;SDS011;41245;45.384;20.390;2023-05-10T10:15:32;16.50;;;2.50;;
55364;SDS011;41245;45.384;20.390;2023-05-10T10:17:58;3.13;;;2.78;;
55364;SDS011;41245;45.384;20.390;2023-05-10T10:20:25;9.48;;;2.75;;
55364;SDS011;41245;45.384;20.390;2023-05-10T10:22:52;7.68;;;2.20;;
55364;SDS011;41245;45.384;20.390;2023-05-10T10:25:18;5.13;;;2.40;;
55364;SDS011;41245;45.384;20.390;2023-05-10T10:33:06;5.70;;;2.20;;
55364;SDS011;41245;45.384;20.390;2023-05-10T10:35:48;15.98;;;3.00;;
55364;SDS011;41245;45.384;20.390;2023-05-10T10:38:15;5.53;;;2.40;;
55364;SDS011;41245;45.384;20.390;2023-05-10T10:40:42;7.28;;;2.65;;
55364;SDS011;41245;45.384;20.390;2023-05-10T10:43:26;4.85;;;2.70;;
55364;SDS011;41245;45.384;20.390;2023-05-10T10:46:11;14.30;;;2.80;;
55364;SDS011;41245;45.384;20.390;2023-05-10T10:48:38;6.47;;;2.40;;
55364;SDS011;41245;45.384;20.390;2023-05-10T10:51:05;6.47;;;2.42;;
55364;SDS011;41245;45.384;20.390;2023-05-10T10:53:31;8.52;;;2.05;;
55364;SDS011;41245;45.384;20.390;2023-05-10T10:56:08;9.40;;;2.60;;
55364;SDS011;41245;45.384;20.390;2023-05-10T10:58:38;9.07;;;2.85;;
55364;SDS011;41245;45.384;20.390;2023-05-10T11:06:34;6.78;;;2.53;;
55364;SDS011;41245;45.384;20.390;2023-05-10T11:09:11;7.30;;;2.47;;
55364;SDS011;41245;45.384;20.390;2023-05-10T11:11:53;6.10;;;2.30;;
55364;SDS011;41245;45.384;20.390;2023-05-10T11:14:23;13.07;;;2.65;;
55364;SDS011;41245;45.384;20.390;2023-05-10T11:16:49;10.45;;;3.25;;
55364;SDS011;41245;45.384;20.390;2023-05-10T11:19:15;2.17;;;1.83;;
55364;SDS011;41245;45.384;20.390;2023-05-10T11:24:15;5.30;;;2.33;;
55364;SDS011;41245;45.384;20.390;2023-05-10T11:26:43;6.22;;;2.22;;
55364;SDS011;41245;45.384;20.390;2023-05-10T11:29:09;6.70;;;2.33;;
55364;SDS011;41245;45.384;20.390;2023-05-10T11:31:35;6.07;;;2.78;;
55364;SDS011;41245;45.384;20.390;2023-05-10T11:34:06;7.32;;;2.38;;
55364;SDS011;41245;45.384;20.390;2023-05-10T11:36:33;12.18;;;2.28;;
55364;SDS011;41245;45.384;20.390;2023-05-10T11:38:59;10.40;;;2.33;;
55364;SDS011;41245;45.384;20.390;2023-05-10T11:41:28;5.90;;;2.55;;
55364;SDS011;41245;45.384;20.390;2023-05-10T11:43:56;5.53;;;2.20;;
55364;SDS011;41245;45.384;20.390;2023-05-10T11:46:24;6.53;;;1.85;;
55364;SDS011;41245;45.384;20.390;2023-05-10T11:48:57;13.35;;;3.00;;
55364;SDS011;41245;45.384;20.390;2023-05-10T11:51:26;7.32;;;2.00;;
55364;SDS011;41245;45.384;20.390;2023-05-10T11:53:53;6.22;;;2.50;;
55364;SDS011;41245;45.384;20.390;2023-05-10T11:56:19;13.27;;;3.22;;
55364;SDS011;41245;45.384;20.390;2023-05-10T11:58:45;11.40;;;3.28;;
55364;SDS011;41245;45.384;20.390;2023-05-10T12:01:21;17.65;;;2.45;;
55364;SDS011;41245;45.384;20.390;2023-05-10T12:03:48;5.57;;;2.40;;
55364;SDS011;41245;45.384;20.390;2023-05-10T12:06:15;7.35;;;3.00;;
55364;SDS011;41245;45.384;20.390;2023-05-10T12:08:45;3.17;;;2.42;;
55364;SDS011;41245;45.384;20.390;2023-05-10T12:11:12;8.77;;;2.40;;
55364;SDS011;41245;45.384;20.390;2023-05-10T12:13:40;7.65;;;2.13;;
55364;SDS011;41245;45.384;20.390;2023-05-10T12:18:44;7.85;;;2.10;;
55364;SDS011;41245;45.384;20.390;2023-05-10T12:21:13;10.60;;;2.17;;
55364;SDS011;41245;45.384;20.390;2023-05-10T12:23:40;7.75;;;2.60;;
55364;SDS011;41245;45.384;20.390;2023-05-10T12:26:07;8.27;;;2.92;;
55364;SDS011;41245;45.384;20.390;2023-05-10T12:28:35;23.65;;;3.60;;
55364;SDS011;41245;45.384;20.390;2023-05-10T12:31:01;15.00;;;2.50;;
55364;SDS011;41245;45.384;20.390;2023-05-10T12:33:27;9.45;;;2.53;;
55364;SDS011;41245;45.384;20.390;2023-05-10T12:36:02;8.43;;;2.30;;
55364;SDS011;41245;45.384;20.390;2023-05-10T12:38:28;21.02;;;3.30;;
55364;SDS011;41245;45.384;20.390;2023-05-10T12:41:00;6.93;;;2.63;;
55364;SDS011;41245;45.384;20.390;2023-05-10T12:43:27;12.00;;;2.72;;
55364;SDS011;41245;45.384;20.390;2023-05-10T12:45:54;6.05;;;2.33;;
55364;SDS011;41245;45.384;20.390;2023-05-10T12:48:19;15.93;;;2.53;;
55364;SDS011;41245;45.384;20.390;2023-05-10T12:50:45;10.05;;;2.53;;
55364;SDS011;41245;45.384;20.390;2023-05-10T12:53:13;16.15;;;2.72;;
55364;SDS011;41245;45.384;20.390;2023-05-10T12:55:42;8.02;;;2.72;;
55364;SDS011;41245;45.384;20.390;2023-05-10T12:58:08;6.82;;;2.25;;
55364;SDS011;41245;45.384;20.390;2023-05-10T13:00:34;5.40;;;2.38;;
55364;SDS011;41245;45.384;20.390;2023-05-10T13:03:02;7.47;;;1.80;;
55364;SDS011;41245;45.384;20.390;2023-05-10T13:05:34;8.87;;;3.13;;
55364;SDS011;41245;45.384;20.390;2023-05-10T13:08:00;7.55;;;2.55;;
55364;SDS011;41245;45.384;20.390;2023-05-10T13:10:26;12.23;;;2.00;;
55364;SDS011;41245;45.384;20.390;2023-05-10T13:12:51;9.93;;;2.58;;
55364;SDS011;41245;45.384;20.390;2023-05-10T13:15:17;8.55;;;2.25;;
55364;SDS011;41245;45.384;20.390;2023-05-10T13:17:43;8.77;;;2.22;;
55364;SDS011;41245;45.384;20.390;2023-05-10T13:20:10;4.90;;;1.60;;
55364;SDS011;41245;45.384;20.390;2023-05-10T13:22:36;5.10;;;2.13;;
55364;SDS011;41245;45.384;20.390;2023-05-10T13:25:02;4.93;;;2.88;;
55364;SDS011;41245;45.384;20.390;2023-05-10T13:27:28;4.40;;;1.90;;
55364;SDS011;41245;45.384;20.390;2023-05-10T13:29:53;10.07;;;1.88;;
55364;SDS011;41245;45.384;20.390;2023-05-10T13:32:20;3.95;;;1.75;;
55364;SDS011;41245;45.384;20.390;2023-05-10T13:34:46;7.75;;;1.48;;
55364;SDS011;41245;45.384;20.390;2023-05-10T13:37:11;2.17;;;1.35;;
55364;SDS011;41245;45.384;20.390;2023-05-10T13:39:37;9.70;;;2.25;;
55364;SDS011;41245;45.384;20.390;2023-05-10T13:42:03;8.63;;;1.95;;
55364;SDS011;41245;45.384;20.390;2023-05-10T13:44:29;4.75;;;2.33;;
55364;SDS011;41245;45.384;20.390;2023-05-10T13:46:56;8.68;;;2.03;;
55364;SDS011;41245;45.384;20.390;2023-05-10T13:49:22;6.63;;;2.65;;
55364;SDS011;41245;45.384;20.390;2023-05-10T13:51:47;17.63;;;2.35;;
55364;SDS011;41245;45.384;20.390;2023-05-10T13:54:13;6.53;;;2.03;;
55364;SDS011;41245;45.384;20.390;2023-05-10T13:56:39;5.00;;;1.67;;
55364;SDS011;41245;45.384;20.390;2023-05-10T13:59:07;7.00;;;1.92;;
55364;SDS011;41245;45.384;20.390;2023-05-10T14:01:33;4.68;;;1.73;;
55364;SDS011;41245;45.384;20.390;2023-05-10T14:03:59;4.28;;;1.35;;
55364;SDS011;41245;45.384;20.390;2023-05-10T14:06:25;7.60;;;2.00;;
55364;SDS011;41245;45.384;20.390;2023-05-10T14:08:52;7.32;;;1.92;;
55364;SDS011;41245;45.384;20.390;2023-05-10T14:11:19;7.28;;;2.03;;
55364;SDS011;41245;45.384;20.390;2023-05-10T14:13:44;4.00;;;2.17;;
55364;SDS011;41245;45.384;20.390;2023-05-10T14:16:11;7.43;;;2.20;;
55364;SDS011;41245;45.384;20.390;2023-05-10T14:18:36;3.95;;;2.00;;
55364;SDS011;41245;45.384;20.390;2023-05-10T14:21:02;6.07;;;2.03;;
55364;SDS011;41245;45.384;20.390;2023-05-10T14:23:28;9.43;;;2.20;;
55364;SDS011;41245;45.384;20.390;2023-05-10T14:25:55;9.77;;;1.80;;
55364;SDS011;41245;45.384;20.390;2023-05-10T14:28:20;7.95;;;3.67;;
55364;SDS011;41245;45.384;20.390;2023-05-10T14:30:47;15.32;;;2.10;;
55364;SDS011;41245;45.384;20.390;2023-05-10T14:33:13;4.32;;;1.75;;
55364;SDS011;41245;45.384;20.390;2023-05-10T14:35:39;6.50;;;2.13;;
55364;SDS011;41245;45.384;20.390;2023-05-10T14:38:05;4.25;;;2.17;;
55364;SDS011;41245;45.384;20.390;2023-05-10T14:40:31;7.50;;;1.85;;
55364;SDS011;41245;45.384;20.390;2023-05-10T14:42:57;8.45;;;2.00;;
55364;SDS011;41245;45.384;20.390;2023-05-10T14:45:22;3.67;;;2.13;;
55364;SDS011;41245;45.384;20.390;2023-05-10T14:47:48;7.85;;;2.22;;
55364;SDS011;41245;45.384;20.390;2023-05-10T14:50:15;9.18;;;2.10;;
55364;SDS011;41245;45.384;20.390;2023-05-10T14:52:42;14.68;;;2.25;;
55364;SDS011;41245;45.384;20.390;2023-05-10T14:55:08;12.30;;;2.00;;
55364;SDS011;41245;45.384;20.390;2023-05-10T14:57:34;3.75;;;1.67;;
55364;SDS011;41245;45.384;20.390;2023-05-10T15:00:00;5.15;;;2.70;;
55364;SDS011;41245;45.384;20.390;2023-05-10T15:02:25;7.40;;;1.92;;
55364;SDS011;41245;45.384;20.390;2023-05-10T15:04:51;5.53;;;1.65;;
55364;SDS011;41245;45.384;20.390;2023-05-10T15:07:17;4.43;;;2.10;;
55364;SDS011;41245;45.384;20.390;2023-05-10T15:09:43;5.50;;;1.60;;
55364;SDS011;41245;45.384;20.390;2023-05-10T15:12:09;4.18;;;2.08;;